Time;durP1;ratioP1;P1;durP2;ratioP2;P2;SDS_P1;SDS_P2;PMS_P1;PMS_P2;Temp;Humidity;BMP_temperature;BMP_pressure;BME280_temperature;BME280_humidity;BME280_pressure;Samples;Min_cycle;Max_cycle;Signal;HPM_P1;HPM_P2
2022/07/15 00:02:01;;;;;;;1.00;0.90;;;25.80;67.40;;;;;;5075429;28;20437;-84
2022/07/15 00:04:28;;;;;;;1.40;1.10;;;25.80;67.40;;;;;;5075635;28;20845;-88
2022/07/15 00:06:55;;;;;;;1.20;1.00;;;25.80;67.50;;;;;;5075506;28;20436;-84
2022/07/15 00:10:13;;;;;;;1.53;0.93;;;25.80;67.50;;;;;;5075167;28;20433;-84
2022/07/15 00:12:10;;;;;;;1.07;0.97;;;25.80;67.60;;;;;;5074920;28;20447;-85
2022/07/15 00:14:38;;;;;;;1.63;1.10;;;25.70;67.50;;;;;;5075470;28;20483;-94
2022/07/15 00:17:06;;;;;;;1.00;0.80;;;25.70;67.40;;;;;;5075390;28;20567;-92
2022/07/15 00:19:33;;;;;;;1.67;1.07;;;25.70;67.40;;;;;;5075343;28;20510;-84
2022/07/15 00:22:00;;;;;;;1.00;0.80;;;25.80;67.50;;;;;;5074989;28;20447;-84
2022/07/15 00:24:27;;;;;;;1.30;0.90;;;25.70;67.50;;;;;;5074997;28;20947;-84
2022/07/15 00:26:54;;;;;;;1.00;0.80;;;25.80;67.60;;;;;;5074655;28;20869;-85
2022/07/15 00:29:22;;;;;;;1.13;0.93;;;25.70;67.50;;;;;;5075183;28;20924;-85
2022/07/15 00:31:49;;;;;;;1.70;1.20;;;25.70;67.60;;;;;;5074919;28;20477;-84
2022/07/15 00:34:16;;;;;;;1.10;1.00;;;25.80;67.70;;;;;;5075097;28;20440;-93
2022/07/15 00:36:44;;;;;;;1.10;0.90;;;25.70;67.60;;;;;;5074559;28;20944;-84
2022/07/15 00:39:11;;;;;;;1.10;0.87;;;25.80;67.60;;;;;;5074718;28;20864;-84
2022/07/15 00:41:38;;;;;;;1.20;0.97;;;25.70;67.50;;;;;;5074733;28;20445;-92
2022/07/15 00:44:05;;;;;;;1.53;0.90;;;25.70;67.60;;;;;;5074597;28;20451;-93
2022/07/15 00:46:33;;;;;;;1.30;1.00;;;25.70;67.70;;;;;;5074660;28;20444;-84
2022/07/15 00:49:00;;;;;;;1.10;0.97;;;25.70;67.60;;;;;;5074590;28;20555;-84
2022/07/15 00:51:27;;;;;;;1.10;0.90;;;25.70;68.50;;;;;;5074368;28;21048;-84
2022/07/15 00:53:56;;;;;;;1.90;1.10;;;25.70;67.70;;;;;;5074249;28;20524;-84
2022/07/15 00:56:26;;;;;;;1.00;0.90;;;25.70;67.70;;;;;;5074370;28;20433;-84
2022/07/15 00:58:54;;;;;;;1.50;0.90;;;25.70;67.70;;;;;;5074051;28;20448;-84
2022/07/15 01:01:21;;;;;;;1.43;0.87;;;25.70;67.70;;;;;;5074171;28;20479;-85
2022/07/15 01:03:51;;;;;;;1.20;0.93;;;25.70;67.70;;;;;;5074175;28;20446;-90
2022/07/15 01:06:18;;;;;;;1.23;0.90;;;25.80;67.70;;;;;;5074350;28;20451;-94
2022/07/15 01:08:45;;;;;;;1.20;1.00;;;25.70;67.60;;;;;;5074242;28;20544;-93
2022/07/15 01:11:12;;;;;;;1.20;1.10;;;25.70;67.70;;;;;;5074153;28;20535;-85
2022/07/15 01:13:39;;;;;;;1.30;1.00;;;25.70;67.60;;;;;;5074145;28;20437;-85
2022/07/15 01:16:06;;;;;;;1.00;0.90;;;25.70;67.50;;;;;;5074179;28;20443;-84
2022/07/15 01:18:33;;;;;;;1.33;1.10;;;25.70;67.60;;;;;;5073865;28;20851;-85
2022/07/15 01:21:01;;;;;;;1.10;0.90;;;25.70;67.60;;;;;;5074166;28;20543;-93
2022/07/15 01:23:28;;;;;;;1.30;1.17;;;25.80;67.70;;;;;;5074052;28;20532;-85
2022/07/15 01:25:56;;;;;;;1.30;1.13;;;25.70;67.50;;;;;;5073634;28;20939;-93
2022/07/15 01:28:23;;;;;;;1.20;1.00;;;25.70;67.50;;;;;;5073783;28;20480;-85
2022/07/15 01:30:49;;;;;;;1.20;1.00;;;25.70;67.50;;;;;;5073805;28;20815;-92
2022/07/15 01:33:16;;;;;;;1.10;1.00;;;25.70;67.60;;;;;;5074044;28;20528;-93
2022/07/15 01:35:43;;;;;;;1.10;0.93;;;25.80;67.60;;;;;;5073731;28;20451;-85
2022/07/15 01:38:11;;;;;;;1.10;1.00;;;25.70;67.40;;;;;;5073596;28;20913;-85
2022/07/15 01:40:38;;;;;;;0.90;0.70;;;25.70;67.40;;;;;;5073928;28;20437;-85
2022/07/15 01:43:05;;;;;;;1.40;1.00;;;25.70;67.60;;;;;;5073713;28;20942;-85
2022/07/15 01:45:32;;;;;;;1.07;0.87;;;25.70;67.50;;;;;;5073925;28;20589;-84
2022/07/15 01:47:59;;;;;;;0.97;0.80;;;25.70;67.60;;;;;;5073659;28;20461;-84
2022/07/15 01:50:25;;;;;;;1.00;0.80;;;25.70;67.50;;;;;;5073458;28;20461;-85
2022/07/15 01:52:52;;;;;;;1.10;0.90;;;25.70;67.50;;;;;;5073701;28;20963;-85
2022/07/15 01:55:20;;;;;;;1.30;0.83;;;25.70;67.40;;;;;;5073471;28;20483;-84
2022/07/15 01:57:47;;;;;;;1.20;1.10;;;25.70;67.40;;;;;;5073572;28;21092;-85
2022/07/15 02:00:16;;;;;;;1.40;0.90;;;25.70;67.40;;;;;;5073667;28;20848;-92
2022/07/15 02:02:43;;;;;;;1.00;0.90;;;25.70;67.40;;;;;;5073372;28;20468;-85
2022/07/15 02:05:10;;;;;;;2.10;1.00;;;25.70;67.50;;;;;;5073376;28;20445;-85
2022/07/15 02:07:38;;;;;;;1.40;0.90;;;25.70;67.50;;;;;;5073385;28;20451;-93
2022/07/15 02:10:05;;;;;;;1.40;0.90;;;25.70;67.60;;;;;;5073707;28;20487;-92
2022/07/15 02:12:34;;;;;;;1.10;1.00;;;25.70;67.50;;;;;;5075775;28;20441;-85
2022/07/15 02:15:01;;;;;;;1.10;1.00;;;25.70;67.50;;;;;;5077807;28;20433;-93
2022/07/15 02:17:28;;;;;;;1.13;1.00;;;25.70;67.50;;;;;;5077645;28;20496;-84
2022/07/15 02:19:54;;;;;;;1.00;0.80;;;25.70;67.70;;;;;;5077607;28;20436;-84
2022/07/15 02:22:21;;;;;;;1.13;1.03;;;25.70;67.60;;;;;;5077269;28;20441;-85
2022/07/15 02:24:48;;;;;;;1.30;0.90;;;25.70;67.60;;;;;;5077493;28;20445;-85
2022/07/15 02:27:15;;;;;;;1.00;0.90;;;25.70;67.70;;;;;;5077116;28;20834;-93
2022/07/15 02:29:43;;;;;;;1.10;0.90;;;25.70;67.50;;;;;;5077589;28;20441;-93
2022/07/15 02:32:10;;;;;;;1.00;0.90;;;25.70;67.50;;;;;;5077087;28;20961;-85
2022/07/15 02:34:37;;;;;;;1.00;0.90;;;25.70;67.50;;;;;;5077210;28;20472;-86
2022/07/15 02:37:04;;;;;;;1.30;1.00;;;25.70;67.50;;;;;;5077207;28;20524;-93
2022/07/15 02:39:31;;;;;;;1.20;1.10;;;25.70;67.60;;;;;;5077296;28;20524;-86
2022/07/15 02:41:57;;;;;;;1.10;1.00;;;25.70;67.60;;;;;;5076985;28;20531;-94
2022/07/15 02:44:24;;;;;;;1.00;0.90;;;25.70;67.60;;;;;;5077166;28;20440;-94
2022/07/15 02:46:52;;;;;;;1.03;0.93;;;25.60;67.50;;;;;;5076637;28;20874;-85
2022/07/15 02:49:19;;;;;;;1.17;0.80;;;25.70;67.50;;;;;;5076695;28;20526;-94
2022/07/15 02:51:46;;;;;;;1.10;0.90;;;25.70;67.50;;;;;;5076978;28;20479;-94
2022/07/15 02:54:13;;;;;;;1.23;0.90;;;25.70;67.60;;;;;;5076996;28;20447;-92
2022/07/15 02:56:40;;;;;;;1.20;0.90;;;25.60;67.50;;;;;;5076763;28;20535;-85
2022/07/15 02:59:07;;;;;;;0.90;0.80;;;25.70;67.60;;;;;;5076575;28;20522;-93
2022/07/15 03:01:33;;;;;;;1.00;0.80;;;25.60;67.60;;;;;;5076834;28;20485;-94
2022/07/15 03:04:02;;;;;;;1.10;0.80;;;25.70;67.60;;;;;;5076829;28;20515;-88
2022/07/15 03:06:29;;;;;;;1.83;1.20;;;25.70;67.70;;;;;;5076374;28;21003;-94
2022/07/15 03:08:55;;;;;;;1.20;1.10;;;25.60;68.40;;;;;;5076461;28;20959;-85
2022/07/15 03:11:22;;;;;;;1.20;1.10;;;25.60;67.40;;;;;;5076251;28;20447;-94
2022/07/15 03:13:50;;;;;;;1.10;0.97;;;25.60;67.50;;;;;;5076488;28;20532;-93
2022/07/15 03:16:17;;;;;;;1.00;0.80;;;25.60;67.50;;;;;;5076463;28;20532;-94
2022/07/15 03:18:44;;;;;;;1.10;0.90;;;25.70;67.70;;;;;;5075969;28;20571;-85
2022/07/15 03:21:12;;;;;;;1.20;1.00;;;25.70;68.40;;;;;;5076305;28;20536;-86
2022/07/15 03:23:39;;;;;;;1.17;0.87;;;25.70;67.70;;;;;;5075685;28;20472;-86
2022/07/15 03:26:06;;;;;;;1.10;1.00;;;25.60;67.60;;;;;;5075947;28;20441;-85
2022/07/15 03:28:33;;;;;;;1.20;1.00;;;25.60;67.60;;;;;;5076035;28;20473;-85
2022/07/15 03:31:00;;;;;;;1.00;0.80;;;25.60;67.60;;;;;;5075756;28;20995;-86
2022/07/15 03:33:27;;;;;;;1.10;1.00;;;25.60;67.60;;;;;;5075907;28;20433;-85
2022/07/15 03:35:54;;;;;;;1.30;0.90;;;25.60;67.60;;;;;;5075895;28;20448;-94
2022/07/15 03:38:22;;;;;;;1.30;1.20;;;25.60;67.60;;;;;;5076544;28;20484;-85
2022/07/15 03:40:49;;;;;;;1.17;1.07;;;25.60;67.60;;;;;;5076587;28;20449;-94
2022/07/15 03:43:16;;;;;;;1.00;0.90;;;25.60;67.60;;;;;;5075686;28;20490;-94
2022/07/15 03:45:43;;;;;;;1.10;0.90;;;25.60;67.60;;;;;;5075832;28;20444;-85
2022/07/15 03:48:10;;;;;;;1.00;0.90;;;25.60;67.60;;;;;;5075922;28;20567;-85
2022/07/15 03:50:37;;;;;;;1.03;0.90;;;25.60;67.90;;;;;;5075765;28;20450;-93
2022/07/15 03:53:04;;;;;;;1.00;0.90;;;25.60;67.70;;;;;;5075841;28;20440;-85
2022/07/15 03:55:32;;;;;;;1.47;1.00;;;25.60;67.80;;;;;;5075829;28;20441;-85
2022/07/15 03:57:59;;;;;;;1.00;0.80;;;25.60;67.80;;;;;;5075636;28;20483;-86
2022/07/15 04:00:26;;;;;;;1.10;1.00;;;25.60;67.80;;;;;;5075475;28;20479;-85
2022/07/15 04:02:53;;;;;;;1.00;0.80;;;25.60;67.80;;;;;;5075525;28;20567;-85
2022/07/15 04:05:19;;;;;;;1.03;0.90;;;25.60;67.70;;;;;;5075377;28;20877;-85
2022/07/15 04:07:46;;;;;;;1.17;0.97;;;25.60;67.80;;;;;;5075585;28;20524;-85
2022/07/15 04:10:14;;;;;;;1.20;1.00;;;25.60;67.90;;;;;;5075330;28;20445;-89
2022/07/15 04:12:42;;;;;;;1.53;0.90;;;25.60;67.80;;;;;;5075011;28;20594;-85
2022/07/15 04:15:10;;;;;;;1.00;0.83;;;25.60;68.00;;;;;;5075460;28;20859;-85
2022/07/15 04:17:37;;;;;;;1.27;1.10;;;25.60;68.10;;;;;;5068539;28;20469;-90
2022/07/15 04:20:05;;;;;;;1.00;0.73;;;25.60;68.20;;;;;;5062567;28;20438;-85
2022/07/15 04:22:38;;;;;;;1.10;0.80;;;25.60;68.10;;;;;;5063828;28;20437;-87
2022/07/15 04:25:07;;;;;;;1.33;0.90;;;25.60;68.10;;;;;;5072163;28;20528;-86
2022/07/15 04:27:34;;;;;;;1.20;0.90;;;25.60;68.00;;;;;;5074123;28;20468;-85
2022/07/15 04:30:02;;;;;;;1.00;0.80;;;25.60;68.00;;;;;;5074880;28;20453;-85
2022/07/15 04:32:29;;;;;;;2.30;1.40;;;25.60;68.20;;;;;;5074693;28;20555;-85
2022/07/15 04:34:56;;;;;;;1.00;0.80;;;25.60;68.10;;;;;;5070563;28;20449;-88
2022/07/15 04:37:23;;;;;;;1.30;0.90;;;25.60;67.60;;;;;;5062959;28;20450;-89
2022/07/15 04:39:50;;;;;;;1.10;0.80;;;25.60;68.10;;;;;;5068488;28;20489;-84
2022/07/15 04:42:17;;;;;;;1.87;0.97;;;25.60;68.40;;;;;;5071777;28;20464;-88
2022/07/15 04:44:43;;;;;;;3.50;1.80;;;25.60;68.40;;;;;;5074490;28;20912;-84
2022/07/15 04:47:11;;;;;;;2.20;1.40;;;25.60;68.50;;;;;;5074488;28;20465;-89
2022/07/15 04:52:22;;;;;;;1.20;1.00;;;25.60;68.70;;;;;;5074673;28;20420;-84
2022/07/15 04:54:49;;;;;;;1.20;1.10;;;25.60;68.70;;;;;;5074398;28;20796;-84
2022/07/15 04:57:16;;;;;;;4.90;1.70;;;25.50;69.50;;;;;;5074141;28;20443;-84
2022/07/15 04:59:43;;;;;;;4.20;2.03;;;25.40;66.20;;;;;;5074208;28;20491;-84
2022/07/15 05:02:11;;;;;;;4.70;2.07;;;25.30;65.10;;;;;;5073930;28;20452;-84
2022/07/15 05:04:38;;;;;;;4.90;3.10;;;25.20;65.00;;;;;;5074235;28;20445;-84
2022/07/15 05:07:06;;;;;;;5.70;2.30;;;24.90;65.00;;;;;;5073930;28;20452;-81
2022/07/15 05:09:32;;;;;;;5.70;2.13;;;24.80;65.30;;;;;;5074102;28;20820;-82
2022/07/15 05:11:59;;;;;;;11.00;3.17;;;24.60;65.60;;;;;;5073854;28;20441;-82
2022/07/15 05:14:26;;;;;;;7.10;2.70;;;24.40;65.80;;;;;;5073758;28;20439;-82
2022/07/15 05:16:53;;;;;;;5.10;2.70;;;24.30;66.20;;;;;;5073450;28;20469;-81
2022/07/15 05:19:21;;;;;;;4.70;2.23;;;24.20;66.40;;;;;;5073874;28;20915;-81
2022/07/15 05:21:48;;;;;;;10.23;2.90;;;24.10;66.50;;;;;;5073916;28;20452;-83
2022/07/15 05:24:15;;;;;;;8.03;2.53;;;24.00;66.80;;;;;;5073021;28;20523;-83
2022/07/15 05:26:42;;;;;;;4.50;2.50;;;23.90;67.10;;;;;;5073227;28;20437;-83
2022/07/15 05:29:09;;;;;;;6.23;2.87;;;23.80;67.70;;;;;;5073678;28;20812;-82
2022/07/15 05:31:36;;;;;;;5.37;2.23;;;23.70;66.80;;;;;;5073309;28;20449;-82
2022/07/15 05:34:02;;;;;;;5.80;2.73;;;23.70;66.90;;;;;;5073512;28;20436;-83
2022/07/15 05:36:30;;;;;;;6.10;2.30;;;23.70;67.20;;;;;;5073242;28;20950;-83
2022/07/15 05:38:57;;;;;;;5.13;2.70;;;23.70;67.20;;;;;;5073382;28;20576;-83
2022/07/15 05:41:24;;;;;;;8.00;2.80;;;23.70;67.40;;;;;;5073485;28;20476;-84
2022/07/15 05:43:52;;;;;;;5.63;2.40;;;23.70;67.40;;;;;;5074262;28;20526;-92
2022/07/15 05:46:19;;;;;;;6.63;2.40;;;23.70;67.40;;;;;;5073246;28;20449;-93
2022/07/15 05:48:45;;;;;;;6.23;2.60;;;23.90;66.70;;;;;;5073479;28;20544;-81
2022/07/15 05:51:12;;;;;;;5.63;2.17;;;24.00;66.40;;;;;;5072043;28;20512;-81
2022/07/15 05:53:41;;;;;;;3.53;1.87;;;24.00;66.60;;;;;;5072293;28;20877;-86
2022/07/15 05:56:08;;;;;;;7.50;2.60;;;24.10;66.70;;;;;;5072965;28;20544;-82
2022/07/15 05:58:35;;;;;;;2.23;1.70;;;24.20;66.80;;;;;;5073480;28;20901;-80
2022/07/15 06:01:03;;;;;;;4.83;2.17;;;24.30;66.70;;;;;;5072376;28;21026;-81
2022/07/15 06:03:30;;;;;;;6.13;2.60;;;24.30;67.20;;;;;;5073051;28;20451;-82
2022/07/15 06:05:57;;;;;;;3.73;2.47;;;24.40;66.20;;;;;;5073040;28;20460;-82
2022/07/15 06:08:24;;;;;;;4.50;1.87;;;24.40;65.80;;;;;;5073351;28;20946;-95
2022/07/15 06:10:52;;;;;;;4.67;1.73;;;24.40;65.40;;;;;;5073182;28;20862;-82
2022/07/15 06:13:20;;;;;;;5.50;2.13;;;24.40;65.10;;;;;;5073281;28;20439;-89
2022/07/15 06:15:47;;;;;;;4.07;2.03;;;24.40;65.00;;;;;;5073522;28;20475;-82
2022/07/15 06:18:14;;;;;;;6.47;2.57;;;24.40;65.40;;;;;;5073057;28;20459;-82
2022/07/15 06:20:41;;;;;;;7.23;2.40;;;24.40;65.50;;;;;;5073252;28;20551;-82
2022/07/15 06:23:08;;;;;;;4.80;1.67;;;24.50;65.60;;;;;;5072976;28;20436;-95
2022/07/15 06:25:35;;;;;;;5.17;1.83;;;24.50;65.50;;;;;;5073015;28;20469;-82
2022/07/15 06:28:04;;;;;;;7.67;2.10;;;24.50;65.50;;;;;;5072655;28;20465;-82
2022/07/15 06:30:31;;;;;;;3.80;2.20;;;24.50;65.60;;;;;;5072925;28;20515;-82
2022/07/15 06:32:58;;;;;;;8.47;2.03;;;24.50;65.30;;;;;;5072832;28;20443;-82
2022/07/15 06:35:25;;;;;;;3.50;1.80;;;24.50;65.50;;;;;;5072910;28;20520;-82
2022/07/15 06:37:52;;;;;;;5.13;2.20;;;24.50;65.20;;;;;;5072845;28;20511;-82
2022/07/15 06:40:19;;;;;;;7.20;1.90;;;24.50;64.10;;;;;;5072987;28;20484;-82
2022/07/15 06:42:46;;;;;;;8.83;2.17;;;24.50;64.20;;;;;;5072713;28;20469;-82
2022/07/15 06:45:15;;;;;;;3.70;1.90;;;24.50;63.90;;;;;;5072784;28;20868;-81
2022/07/15 06:47:42;;;;;;;3.43;1.77;;;24.40;63.90;;;;;;5072783;28;20560;-82
2022/07/15 06:50:10;;;;;;;5.87;2.10;;;24.40;64.00;;;;;;5072588;28;20535;-81
2022/07/15 06:52:37;;;;;;;5.53;1.70;;;24.50;64.00;;;;;;5073615;28;20469;-88
2022/07/15 06:55:04;;;;;;;6.70;3.13;;;24.40;64.80;;;;;;5073025;28;20948;-86
2022/07/15 07:00:17;;;;;;;5.53;1.47;;;24.50;63.30;;;;;;5075293;28;21074;-84
2022/07/15 07:02:44;;;;;;;4.13;2.07;;;24.50;63.40;;;;;;5076286;28;20479;-91
2022/07/15 07:05:11;;;;;;;4.43;2.10;;;24.50;63.50;;;;;;5076148;28;20445;-93
2022/07/15 07:07:38;;;;;;;2.80;1.80;;;24.50;63.30;;;;;;5076176;28;20448;-86
2022/07/15 07:10:07;;;;;;;10.27;1.80;;;24.50;63.20;;;;;;5075875;28;20463;-85
2022/07/15 07:12:34;;;;;;;3.47;1.37;;;24.50;62.90;;;;;;5075727;28;20468;-87
2022/07/15 07:15:02;;;;;;;11.20;2.43;;;24.50;62.90;;;;;;5058644;28;20917;-86
2022/07/15 07:17:30;;;;;;;6.77;1.60;;;24.50;62.60;;;;;;5056403;28;20458;-87
2022/07/15 07:19:57;;;;;;;3.77;1.40;;;24.50;61.90;;;;;;5055698;28;20570;-86
2022/07/15 07:22:24;;;;;;;4.70;1.67;;;24.50;61.60;;;;;;5056347;28;20433;-90
2022/07/15 07:24:53;;;;;;;4.40;1.90;;;24.50;61.90;;;;;;5057222;28;20544;-88
2022/07/15 07:27:19;;;;;;;3.07;1.70;;;24.50;61.90;;;;;;5056936;28;20524;-90
2022/07/15 07:29:46;;;;;;;3.90;1.90;;;24.60;62.20;;;;;;5055857;28;20469;-91
2022/07/15 07:32:13;;;;;;;2.33;1.50;;;24.60;62.30;;;;;;5055963;28;20493;-88
2022/07/15 07:34:42;;;;;;;3.23;1.33;;;24.70;62.80;;;;;;5056905;28;20499;-86
2022/07/15 07:37:09;;;;;;;3.17;1.43;;;24.80;63.00;;;;;;5074614;28;20450;-89
2022/07/15 07:39:36;;;;;;;2.30;1.20;;;24.80;64.20;;;;;;5080752;28;20482;-88
2022/07/15 07:42:03;;;;;;;4.60;1.57;;;24.80;63.70;;;;;;5075114;28;20442;-92
2022/07/15 07:44:30;;;;;;;2.23;1.33;;;24.80;64.00;;;;;;5056732;28;20526;-93
2022/07/15 07:46:56;;;;;;;1.80;1.20;;;24.80;64.20;;;;;;5057009;28;20537;-90
2022/07/15 07:49:23;;;;;;;2.90;1.10;;;24.90;64.70;;;;;;5062218;28;20528;-92
2022/07/15 07:51:52;;;;;;;3.03;1.40;;;24.90;64.70;;;;;;5075572;28;20441;-93
2022/07/15 07:54:19;;;;;;;2.03;1.43;;;24.90;64.70;;;;;;5084579;28;20849;-91
2022/07/15 07:56:46;;;;;;;1.60;1.30;;;25.00;64.90;;;;;;5075528;28;20801;-92
2022/07/15 07:59:13;;;;;;;2.00;1.20;;;25.00;64.90;;;;;;5075249;28;20480;-91
2022/07/15 08:01:40;;;;;;;2.30;1.10;;;25.00;64.90;;;;;;5076794;28;20476;-88
2022/07/15 08:04:07;;;;;;;1.77;1.20;;;25.00;64.90;;;;;;5076934;28;20453;-90
2022/07/15 08:06:35;;;;;;;1.90;0.90;;;25.00;65.00;;;;;;5076117;28;20524;-88
2022/07/15 08:09:03;;;;;;;3.03;1.20;;;25.10;65.10;;;;;;5075988;28;20456;-90
2022/07/15 08:11:30;;;;;;;1.93;1.07;;;25.10;66.00;;;;;;5075928;28;20806;-91
2022/07/15 08:13:57;;;;;;;2.03;1.10;;;25.10;65.10;;;;;;5075456;28;20878;-86
2022/07/15 08:16:24;;;;;;;1.73;1.20;;;25.10;65.10;;;;;;5074642;28;20532;-87
2022/07/15 08:18:53;;;;;;;1.70;1.37;;;25.10;65.10;;;;;;5074855;28;20914;-89
2022/07/15 08:21:20;;;;;;;1.93;1.00;;;25.10;65.10;;;;;;5075289;28;20445;-87
2022/07/15 08:23:47;;;;;;;3.90;1.50;;;25.20;65.20;;;;;;5074197;28;20929;-84
2022/07/15 08:26:18;;;;;;;3.83;1.20;;;25.20;65.20;;;;;;5074092;28;20489;-90
2022/07/15 08:28:45;;;;;;;2.70;1.37;;;25.20;65.20;;;;;;5074236;28;20562;-84
2022/07/15 08:31:12;;;;;;;1.47;1.10;;;25.20;65.20;;;;;;5077445;28;20451;-89
2022/07/15 08:33:39;;;;;;;2.43;1.40;;;25.20;65.20;;;;;;5074807;28;20487;-90
2022/07/15 08:36:06;;;;;;;2.60;0.97;;;25.20;65.20;;;;;;5075184;28;20445;-89
2022/07/15 08:38:33;;;;;;;1.63;1.23;;;25.20;65.10;;;;;;5073899;28;20935;-88
2022/07/15 08:41:00;;;;;;;2.07;1.17;;;25.20;65.10;;;;;;5075069;28;20487;-92
2022/07/15 08:43:29;;;;;;;2.73;1.13;;;25.20;65.10;;;;;;5074760;28;20487;-93
2022/07/15 08:45:56;;;;;;;1.40;1.20;;;25.20;65.10;;;;;;5075655;28;20943;-94
2022/07/15 08:48:28;;;;;;;1.30;0.90;;;25.20;65.20;;;;;;5076191;28;20466;-87
2022/07/15 08:50:56;;;;;;;5.67;1.33;;;25.20;65.20;;;;;;5072909;28;20449;-86
2022/07/15 08:53:23;;;;;;;2.07;1.20;;;25.20;66.10;;;;;;5074303;28;20449;-87
2022/07/15 08:55:51;;;;;;;1.77;1.10;;;25.20;65.30;;;;;;5077483;28;20437;-95
2022/07/15 08:58:17;;;;;;;2.67;1.50;;;25.20;65.40;;;;;;5085098;28;20504;-96
2022/07/15 09:00:46;;;;;;;1.83;1.10;;;25.20;65.50;;;;;;5075060;28;20488;-88
2022/07/15 09:03:13;;;;;;;2.13;1.20;;;25.20;65.40;;;;;;5074143;28;20848;-88
2022/07/15 09:05:39;;;;;;;1.67;1.20;;;25.20;65.40;;;;;;5074016;28;20477;-91
2022/07/15 09:08:10;;;;;;;1.60;1.20;;;25.30;65.60;;;;;;5076241;28;20445;-88
2022/07/15 09:10:49;;;;;;;1.40;1.00;;;25.20;65.50;;;;;;5078612;28;20532;-94
2022/07/15 09:13:31;;;;;;;1.77;1.50;;;25.30;65.50;;;;;;5074620;28;20437;-92
2022/07/15 09:16:01;;;;;;;2.03;0.97;;;25.30;65.50;;;;;;5081495;28;20449;-94
2022/07/15 09:18:33;;;;;;;2.80;1.10;;;25.30;65.60;;;;;;5070365;28;20516;-89
2022/07/15 09:21:01;;;;;;;2.60;1.10;;;25.30;65.50;;;;;;5073525;28;20484;-88
2022/07/15 09:23:30;;;;;;;1.40;1.10;;;25.20;65.50;;;;;;5073338;28;20444;-91
2022/07/15 09:25:58;;;;;;;2.17;1.20;;;25.30;65.70;;;;;;5065176;28;20457;-92
2022/07/15 09:28:40;;;;;;;2.00;0.90;;;25.30;65.70;;;;;;5073884;28;20476;-92
2022/07/15 09:34:00;;;;;;;2.30;1.17;;;25.30;65.90;;;;;;5074441;28;20428;-95
2022/07/15 09:36:28;;;;;;;2.13;1.10;;;25.30;65.90;;;;;;5074399;28;20500;-92
2022/07/15 09:38:57;;;;;;;2.40;1.50;;;25.30;65.90;;;;;;5075454;28;20946;-94
2022/07/15 09:41:30;;;;;;;1.83;1.13;;;25.30;65.90;;;;;;5075620;28;20523;-94
2022/07/15 09:44:00;;;;;;;1.40;1.10;;;25.30;65.90;;;;;;5074920;28;20443;-94
2022/07/15 09:46:39;;;;;;;3.73;1.10;;;25.30;65.90;;;;;;5074366;28;20477;-93
2022/07/15 09:49:06;;;;;;;1.63;1.10;;;25.30;66.00;;;;;;5076293;28;20540;-93
2022/07/15 09:51:44;;;;;;;3.00;1.00;;;25.30;66.00;;;;;;5074764;28;20445;-92
2022/07/15 09:54:13;;;;;;;1.30;0.80;;;25.40;66.00;;;;;;5074044;28;20452;-90
2022/07/15 09:56:40;;;;;;;1.83;1.23;;;25.30;66.00;;;;;;5073714;28;20441;-91
2022/07/15 09:59:08;;;;;;;1.77;0.90;;;25.30;66.10;;;;;;5074620;28;20535;-94
2022/07/15 10:01:37;;;;;;;2.00;1.00;;;25.30;66.10;;;;;;5074499;28;20449;-92
2022/07/15 10:04:05;;;;;;;2.47;0.90;;;25.30;66.00;;;;;;5076160;28;20445;-95
2022/07/15 10:06:35;;;;;;;2.93;1.30;;;25.40;66.00;;;;;;5074658;28;20441;-92
2022/07/15 10:09:03;;;;;;;2.10;0.90;;;25.30;66.10;;;;;;5073583;28;20534;-94
2022/07/15 10:11:32;;;;;;;1.57;1.10;;;25.40;66.20;;;;;;5073979;28;20451;-92
2022/07/15 10:14:36;;;;;;;1.40;0.80;;;25.30;66.20;;;;;;5073690;28;20567;-95
2022/07/15 10:17:45;;;;;;;1.03;0.77;;;25.40;66.30;;;;;;5058942;28;20461;-95
2022/07/15 10:20:47;;;;;;;2.70;1.03;;;25.40;66.40;;;;;;5076672;28;20480;-93
2022/07/15 10:23:37;;;;;;;1.87;1.00;;;25.30;66.40;;;;;;5073272;28;20535;-87
2022/07/15 10:26:21;;;;;;;2.93;0.90;;;25.40;66.60;;;;;;5070003;28;20456;-85
2022/07/15 10:28:53;;;;;;;1.17;0.90;;;25.30;66.50;;;;;;5037169;28;21051;-85
2022/07/15 10:34:23;;;;;;;2.27;1.23;;;25.30;66.70;;;;;;5054547;28;20430;-86
2022/07/15 10:36:58;;;;;;;5.23;1.03;;;25.40;66.80;;;;;;5055923;28;20456;-87
2022/07/15 10:39:27;;;;;;;2.50;1.10;;;25.30;64.50;;;;;;5057501;28;20811;-93
2022/07/15 10:41:57;;;;;;;9.47;1.57;;;25.30;63.70;;;;;;5056885;28;20441;-91
2022/07/15 10:44:41;;;;;;;1.70;1.30;;;25.30;64.10;;;;;;5058984;28;20932;-94
2022/07/15 10:47:20;;;;;;;2.27;1.27;;;25.30;64.60;;;;;;5057504;28;20512;-91
2022/07/15 10:49:50;;;;;;;9.33;1.20;;;25.30;64.80;;;;;;5056742;28;20438;-89
2022/07/15 10:52:18;;;;;;;2.43;1.00;;;25.30;65.10;;;;;;5069424;28;20528;-92
2022/07/15 10:54:48;;;;;;;3.10;1.10;;;25.30;65.20;;;;;;5076995;28;20452;-84
2022/07/15 10:57:18;;;;;;;5.40;1.30;;;25.30;65.50;;;;;;5074712;28;20440;-84
2022/07/15 10:59:53;;;;;;;2.93;1.50;;;25.40;65.80;;;;;;5076259;28;20479;-91
2022/07/15 11:02:22;;;;;;;1.23;1.00;;;25.40;65.90;;;;;;5075311;28;20455;-86
2022/07/15 11:04:52;;;;;;;6.37;1.13;;;25.40;66.90;;;;;;5083879;28;20535;-92
2022/07/15 11:07:30;;;;;;;5.20;1.50;;;25.40;65.40;;;;;;5079267;28;20453;-92
2022/07/15 11:10:23;;;;;;;1.30;1.10;;;25.40;64.20;;;;;;5076824;28;20955;-95
2022/07/15 11:13:04;;;;;;;3.47;1.27;;;25.30;65.10;;;;;;5052088;28;20448;-92
2022/07/15 11:15:33;;;;;;;3.33;1.20;;;25.30;65.40;;;;;;5077044;28;20840;-91
2022/07/15 11:18:00;;;;;;;2.10;0.90;;;25.30;65.80;;;;;;5077487;28;20461;-95
2022/07/15 11:20:32;;;;;;;3.83;1.00;;;25.30;65.30;;;;;;5077430;28;20515;-94
2022/07/15 11:23:00;;;;;;;3.20;1.10;;;25.30;65.40;;;;;;5077434;28;20513;-93
2022/07/15 11:25:30;;;;;;;2.90;1.10;;;25.30;65.70;;;;;;5077926;28;20476;-95
2022/07/15 11:28:06;;;;;;;7.60;1.63;;;25.30;65.70;;;;;;5076998;28;20472;-93
2022/07/15 11:30:36;;;;;;;2.60;1.13;;;25.40;65.90;;;;;;5078745;28;20800;-93
2022/07/15 11:33:04;;;;;;;2.30;1.30;;;25.30;65.90;;;;;;5076644;28;20536;-91
2022/07/15 11:35:44;;;;;;;1.20;1.00;;;25.40;65.90;;;;;;5076251;28;20532;-88
2022/07/15 11:38:11;;;;;;;2.43;1.20;;;25.40;65.90;;;;;;5075961;28;20429;-86
2022/07/15 11:46:15;;;;;;;1.33;1.10;;;25.30;66.20;;;;;;5075343;28;20436;-84
2022/07/15 11:48:42;;;;;;;2.30;1.17;;;25.30;66.20;;;;;;5075245;28;20491;-84
2022/07/15 11:51:12;;;;;;;2.20;1.63;;;25.30;66.70;;;;;;5075029;28;20441;-84
2022/07/15 11:53:41;;;;;;;5.47;1.67;;;25.30;66.20;;;;;;5075302;28;20814;-83
2022/07/15 11:56:09;;;;;;;4.63;1.40;;;25.40;66.30;;;;;;5075309;28;20437;-83
2022/07/15 11:58:38;;;;;;;5.57;1.30;;;25.30;66.10;;;;;;5075168;28;20440;-83
2022/07/15 12:01:06;;;;;;;1.60;1.10;;;25.40;66.10;;;;;;5075139;28;20524;-83
2022/07/15 12:03:40;;;;;;;5.40;1.70;;;25.40;66.30;;;;;;5075105;28;20485;-83
2022/07/15 12:06:20;;;;;;;3.33;1.00;;;25.40;66.40;;;;;;5075034;28;20781;-83
2022/07/15 12:08:49;;;;;;;3.50;1.30;;;25.40;66.50;;;;;;5075106;28;20441;-84
2022/07/15 12:11:24;;;;;;;1.37;0.90;;;25.40;66.60;;;;;;5074933;28;20955;-83
2022/07/15 12:13:55;;;;;;;3.07;0.90;;;25.40;66.40;;;;;;5074999;28;20448;-83
2022/07/15 12:16:26;;;;;;;1.90;1.27;;;25.40;66.40;;;;;;5074935;28;20568;-83
2022/07/15 12:18:54;;;;;;;2.27;1.20;;;25.40;66.40;;;;;;5074927;28;20456;-84
2022/07/15 12:21:23;;;;;;;3.10;0.80;;;25.40;66.30;;;;;;5074471;28;20583;-84
2022/07/15 12:24:09;;;;;;;1.23;1.00;;;25.40;66.30;;;;;;5074445;28;20456;-83
2022/07/15 12:26:39;;;;;;;9.10;1.10;;;25.40;66.30;;;;;;5074036;28;20452;-83
2022/07/15 12:29:08;;;;;;;2.00;0.90;;;25.40;66.40;;;;;;5074591;28;20445;-83
2022/07/15 12:31:38;;;;;;;1.80;1.20;;;25.40;66.10;;;;;;5074113;28;20440;-83
2022/07/15 12:34:05;;;;;;;1.13;0.90;;;25.40;66.20;;;;;;5074559;28;20502;-84
2022/07/15 12:36:38;;;;;;;1.47;1.00;;;25.40;66.20;;;;;;5073751;28;20441;-83
2022/07/15 12:39:07;;;;;;;1.93;1.10;;;25.40;66.40;;;;;;5073672;28;20445;-83
2022/07/15 12:41:35;;;;;;;2.33;1.00;;;25.40;66.30;;;;;;5073817;28;20481;-83
2022/07/15 12:51:01;;;;;;;1.83;0.90;;;25.40;66.20;;;;;;5078534;28;20446;-94
2022/07/15 12:53:41;;;;;;;2.53;1.00;;;25.30;66.30;;;;;;5077664;28;20457;-93
2022/07/15 12:56:09;;;;;;;1.40;0.90;;;25.40;66.30;;;;;;5078804;28;20417;-93
2022/07/15 12:58:39;;;;;;;1.43;0.90;;;25.20;66.10;;;;;;5079920;28;20437;-92
2022/07/15 13:01:14;;;;;;;1.83;1.10;;;25.40;66.50;;;;;;5081148;28;20464;-95
2022/07/15 13:03:41;;;;;;;1.87;1.10;;;25.40;66.50;;;;;;5079986;28;20502;-95
2022/07/15 13:06:11;;;;;;;1.43;1.10;;;25.40;66.50;;;;;;5081040;28;20475;-94
2022/07/15 13:08:41;;;;;;;4.23;1.00;;;25.40;66.50;;;;;;5078116;28;20518;-94
2022/07/15 13:11:10;;;;;;;3.40;0.97;;;25.40;66.50;;;;;;5058182;28;20472;-95
2022/07/15 13:13:40;;;;;;;1.00;0.70;;;25.40;66.50;;;;;;5075284;28;20463;-94
2022/07/15 13:16:08;;;;;;;1.20;0.70;;;25.40;65.70;;;;;;5075865;28;20472;-94
2022/07/15 13:18:37;;;;;;;1.30;0.80;;;25.40;65.50;;;;;;5076541;28;20912;-94